sensor_id;sensor_type;location;lat;lon;timestamp;P1;durP1;ratioP1;P2;durP2;ratioP2
49942;SDS011;36011;53.362;58.948;2023-02-23T00:00:22;15.13;;;7.32;;
49942;SDS011;36011;53.362;58.948;2023-02-23T00:03:34;13.68;;;8.13;;
49942;SDS011;36011;53.362;58.948;2023-02-23T00:06:40;14.27;;;8.27;;
49942;SDS011;36011;53.362;58.948;2023-02-23T00:09:41;17.58;;;8.18;;
49942;SDS011;36011;53.362;58.948;2023-02-23T00:12:45;17.88;;;8.73;;
49942;SDS011;36011;53.362;58.948;2023-02-23T00:15:49;16.40;;;8.73;;
49942;SDS011;36011;53.362;58.948;2023-02-23T00:18:52;16.23;;;7.28;;
49942;SDS011;36011;53.362;58.948;2023-02-23T00:21:57;17.25;;;9.30;;
49942;SDS011;36011;53.362;58.948;2023-02-23T00:24:59;17.88;;;8.43;;
49942;SDS011;36011;53.362;58.948;2023-02-23T00:28:02;18.95;;;8.40;;
49942;SDS011;36011;53.362;58.948;2023-02-23T00:31:11;12.80;;;8.05;;
49942;SDS011;36011;53.362;58.948;2023-02-23T00:34:18;15.07;;;8.27;;
49942;SDS011;36011;53.362;58.948;2023-02-23T00:37:27;17.98;;;8.07;;
49942;SDS011;36011;53.362;58.948;2023-02-23T00:40:35;14.18;;;7.90;;
49942;SDS011;36011;53.362;58.948;2023-02-23T00:43:43;16.17;;;8.18;;
49942;SDS011;36011;53.362;58.948;2023-02-23T00:46:52;17.60;;;8.73;;
49942;SDS011;36011;53.362;58.948;2023-02-23T00:49:56;16.45;;;8.73;;
49942;SDS011;36011;53.362;58.948;2023-02-23T00:52:57;18.35;;;9.05;;
49942;SDS011;36011;53.362;58.948;2023-02-23T00:55:59;17.50;;;8.43;;
49942;SDS011;36011;53.362;58.948;2023-02-23T00:59:06;17.23;;;8.57;;
49942;SDS011;36011;53.362;58.948;2023-02-23T01:02:09;16.45;;;8.88;;
49942;SDS011;36011;53.362;58.948;2023-02-23T01:05:13;14.23;;;7.82;;
49942;SDS011;36011;53.362;58.948;2023-02-23T01:08:19;19.25;;;8.93;;
49942;SDS011;36011;53.362;58.948;2023-02-23T01:11:25;19.98;;;9.90;;
49942;SDS011;36011;53.362;58.948;2023-02-23T01:14:28;19.42;;;9.80;;
49942;SDS011;36011;53.362;58.948;2023-02-23T01:20:34;17.90;;;8.77;;
49942;SDS011;36011;53.362;58.948;2023-02-23T01:23:38;18.15;;;8.45;;
49942;SDS011;36011;53.362;58.948;2023-02-23T01:26:41;20.80;;;9.18;;
49942;SDS011;36011;53.362;58.948;2023-02-23T01:29:47;18.67;;;9.57;;
49942;SDS011;36011;53.362;58.948;2023-02-23T01:32:51;14.63;;;8.15;;
49942;SDS011;36011;53.362;58.948;2023-02-23T01:35:57;21.52;;;10.43;;
49942;SDS011;36011;53.362;58.948;2023-02-23T01:39:02;16.98;;;8.60;;
49942;SDS011;36011;53.362;58.948;2023-02-23T01:42:10;20.27;;;9.27;;
49942;SDS011;36011;53.362;58.948;2023-02-23T01:48:37;15.07;;;7.45;;
49942;SDS011;36011;53.362;58.948;2023-02-23T01:51:44;17.95;;;8.45;;
49942;SDS011;36011;53.362;58.948;2023-02-23T01:54:50;14.43;;;7.65;;
49942;SDS011;36011;53.362;58.948;2023-02-23T01:57:56;16.67;;;7.80;;
49942;SDS011;36011;53.362;58.948;2023-02-23T02:01:04;17.00;;;8.45;;
49942;SDS011;36011;53.362;58.948;2023-02-23T02:04:11;14.80;;;8.48;;
49942;SDS011;36011;53.362;58.948;2023-02-23T02:07:20;16.40;;;8.65;;
49942;SDS011;36011;53.362;58.948;2023-02-23T02:10:25;17.35;;;7.63;;
49942;SDS011;36011;53.362;58.948;2023-02-23T02:13:39;14.45;;;7.50;;
49942;SDS011;36011;53.362;58.948;2023-02-23T02:46:26;31.88;;;14.63;;
49942;SDS011;36011;53.362;58.948;2023-02-23T02:52:59;34.15;;;14.82;;
49942;SDS011;36011;53.362;58.948;2023-02-23T02:56:09;33.33;;;14.00;;
49942;SDS011;36011;53.362;58.948;2023-02-23T02:59:17;34.20;;;16.10;;
49942;SDS011;36011;53.362;58.948;2023-02-23T03:02:38;27.05;;;14.52;;
49942;SDS011;36011;53.362;58.948;2023-02-23T03:05:59;30.17;;;14.40;;
49942;SDS011;36011;53.362;58.948;2023-02-23T03:09:24;29.58;;;15.05;;
49942;SDS011;36011;53.362;58.948;2023-02-23T03:13:13;38.28;;;17.40;;
49942;SDS011;36011;53.362;58.948;2023-02-23T03:16:49;33.72;;;17.13;;
49942;SDS011;36011;53.362;58.948;2023-02-23T03:23:55;22.02;;;10.80;;
49942;SDS011;36011;53.362;58.948;2023-02-23T03:41:58;38.67;;;17.90;;
49942;SDS011;36011;53.362;58.948;2023-02-23T03:45:23;31.92;;;16.60;;
49942;SDS011;36011;53.362;58.948;2023-02-23T03:48:44;25.40;;;13.90;;
49942;SDS011;36011;53.362;58.948;2023-02-23T03:52:09;18.42;;;9.38;;
49942;SDS011;36011;53.362;58.948;2023-02-23T03:55:42;27.92;;;12.65;;
49942;SDS011;36011;53.362;58.948;2023-02-23T03:59:10;18.02;;;8.73;;
49942;SDS011;36011;53.362;58.948;2023-02-23T04:02:39;23.25;;;11.00;;
49942;SDS011;36011;53.362;58.948;2023-02-23T04:06:02;13.30;;;8.40;;
49942;SDS011;36011;53.362;58.948;2023-02-23T04:09:25;29.95;;;14.57;;
49942;SDS011;36011;53.362;58.948;2023-02-23T04:16:15;19.23;;;9.77;;
49942;SDS011;36011;53.362;58.948;2023-02-23T04:19:17;33.25;;;14.27;;
49942;SDS011;36011;53.362;58.948;2023-02-23T04:22:18;23.13;;;12.05;;
49942;SDS011;36011;53.362;58.948;2023-02-23T04:25:23;24.45;;;12.77;;
49942;SDS011;36011;53.362;58.948;2023-02-23T04:28:26;25.05;;;13.45;;
49942;SDS011;36011;53.362;58.948;2023-02-23T04:31:33;14.35;;;7.45;;
49942;SDS011;36011;53.362;58.948;2023-02-23T04:34:38;17.10;;;10.52;;
49942;SDS011;36011;53.362;58.948;2023-02-23T04:37:39;7.38;;;6.30;;
49942;SDS011;36011;53.362;58.948;2023-02-23T04:40:41;16.67;;;9.13;;
49942;SDS011;36011;53.362;58.948;2023-02-23T04:43:42;16.13;;;9.50;;
49942;SDS011;36011;53.362;58.948;2023-02-23T04:46:49;13.00;;;8.15;;
49942;SDS011;36011;53.362;58.948;2023-02-23T04:49:53;8.15;;;5.90;;
49942;SDS011;36011;53.362;58.948;2023-02-23T04:52:57;11.65;;;6.75;;
49942;SDS011;36011;53.362;58.948;2023-02-23T04:55:58;13.48;;;7.25;;
49942;SDS011;36011;53.362;58.948;2023-02-23T05:02:05;10.98;;;6.53;;
49942;SDS011;36011;53.362;58.948;2023-02-23T05:05:09;6.18;;;2.95;;
49942;SDS011;36011;53.362;58.948;2023-02-23T05:08:13;5.30;;;4.05;;
49942;SDS011;36011;53.362;58.948;2023-02-23T05:11:22;12.82;;;8.15;;
49942;SDS011;36011;53.362;58.948;2023-02-23T05:14:25;13.75;;;8.23;;
49942;SDS011;36011;53.362;58.948;2023-02-23T05:17:30;9.45;;;7.40;;
49942;SDS011;36011;53.362;58.948;2023-02-23T05:20:31;11.82;;;7.25;;
49942;SDS011;36011;53.362;58.948;2023-02-23T05:23:35;8.95;;;5.63;;
49942;SDS011;36011;53.362;58.948;2023-02-23T05:26:37;8.48;;;6.32;;
49942;SDS011;36011;53.362;58.948;2023-02-23T05:29:41;9.98;;;5.47;;
49942;SDS011;36011;53.362;58.948;2023-02-23T05:32:42;12.90;;;6.75;;
49942;SDS011;36011;53.362;58.948;2023-02-23T05:35:44;7.22;;;5.05;;
49942;SDS011;36011;53.362;58.948;2023-02-23T05:38:45;12.63;;;6.20;;
49942;SDS011;36011;53.362;58.948;2023-02-23T05:41:54;12.60;;;6.47;;
49942;SDS011;36011;53.362;58.948;2023-02-23T05:45:00;14.02;;;7.05;;
49942;SDS011;36011;53.362;58.948;2023-02-23T05:48:05;6.03;;;3.45;;
49942;SDS011;36011;53.362;58.948;2023-02-23T05:54:12;7.10;;;4.82;;
49942;SDS011;36011;53.362;58.948;2023-02-23T05:57:13;7.75;;;5.32;;
49942;SDS011;36011;53.362;58.948;2023-02-23T06:00:18;7.18;;;5.00;;
49942;SDS011;36011;53.362;58.948;2023-02-23T06:03:22;9.75;;;5.43;;
49942;SDS011;36011;53.362;58.948;2023-02-23T06:06:26;5.72;;;3.42;;
49942;SDS011;36011;53.362;58.948;2023-02-23T06:09:30;8.32;;;5.22;;
49942;SDS011;36011;53.362;58.948;2023-02-23T06:12:32;7.90;;;4.82;;
49942;SDS011;36011;53.362;58.948;2023-02-23T06:15:34;5.65;;;4.25;;
49942;SDS011;36011;53.362;58.948;2023-02-23T06:18:37;7.20;;;4.50;;
49942;SDS011;36011;53.362;58.948;2023-02-23T06:21:41;7.60;;;4.78;;
49942;SDS011;36011;53.362;58.948;2023-02-23T06:24:47;7.18;;;4.50;;
49942;SDS011;36011;53.362;58.948;2023-02-23T06:27:53;6.00;;;4.32;;
49942;SDS011;36011;53.362;58.948;2023-02-23T06:31:00;8.68;;;4.50;;
49942;SDS011;36011;53.362;58.948;2023-02-23T06:34:02;4.88;;;3.08;;
49942;SDS011;36011;53.362;58.948;2023-02-23T06:37:08;6.60;;;4.30;;
49942;SDS011;36011;53.362;58.948;2023-02-23T06:40:12;5.18;;;3.70;;
49942;SDS011;36011;53.362;58.948;2023-02-23T06:43:14;4.70;;;3.50;;
49942;SDS011;36011;53.362;58.948;2023-02-23T06:46:18;6.85;;;4.80;;
49942;SDS011;36011;53.362;58.948;2023-02-23T06:49:21;9.55;;;5.55;;
49942;SDS011;36011;53.362;58.948;2023-02-23T06:52:25;5.00;;;3.60;;
49942;SDS011;36011;53.362;58.948;2023-02-23T06:55:28;5.70;;;3.10;;
49942;SDS011;36011;53.362;58.948;2023-02-23T06:58:32;3.15;;;2.25;;
49942;SDS011;36011;53.362;58.948;2023-02-23T07:01:35;4.35;;;3.03;;
49942;SDS011;36011;53.362;58.948;2023-02-23T07:04:37;4.82;;;3.20;;
49942;SDS011;36011;53.362;58.948;2023-02-23T07:07:38;4.63;;;3.20;;
49942;SDS011;36011;53.362;58.948;2023-02-23T07:10:40;4.75;;;3.58;;
49942;SDS011;36011;53.362;58.948;2023-02-23T07:13:42;4.88;;;4.03;;
49942;SDS011;36011;53.362;58.948;2023-02-23T07:16:43;5.03;;;3.20;;
49942;SDS011;36011;53.362;58.948;2023-02-23T07:19:44;3.95;;;2.95;;
49942;SDS011;36011;53.362;58.948;2023-02-23T07:22:46;6.93;;;4.40;;
49942;SDS011;36011;53.362;58.948;2023-02-23T07:25:51;6.43;;;3.83;;
49942;SDS011;36011;53.362;58.948;2023-02-23T07:28:53;5.15;;;3.92;;
49942;SDS011;36011;53.362;58.948;2023-02-23T07:32:00;4.63;;;3.72;;
49942;SDS011;36011;53.362;58.948;2023-02-23T07:35:02;7.15;;;5.18;;
49942;SDS011;36011;53.362;58.948;2023-02-23T07:38:04;6.83;;;4.40;;
49942;SDS011;36011;53.362;58.948;2023-02-23T07:41:10;7.93;;;5.35;;
49942;SDS011;36011;53.362;58.948;2023-02-23T07:44:11;7.72;;;3.33;;
49942;SDS011;36011;53.362;58.948;2023-02-23T07:47:12;8.13;;;5.80;;
49942;SDS011;36011;53.362;58.948;2023-02-23T07:50:16;7.55;;;5.38;;
49942;SDS011;36011;53.362;58.948;2023-02-23T07:53:19;9.05;;;5.70;;
49942;SDS011;36011;53.362;58.948;2023-02-23T07:56:26;8.82;;;5.00;;
49942;SDS011;36011;53.362;58.948;2023-02-23T07:59:28;6.05;;;4.43;;
49942;SDS011;36011;53.362;58.948;2023-02-23T08:02:30;6.20;;;4.25;;
49942;SDS011;36011;53.362;58.948;2023-02-23T08:05:34;8.02;;;4.82;;
49942;SDS011;36011;53.362;58.948;2023-02-23T08:08:39;11.48;;;5.97;;
49942;SDS011;36011;53.362;58.948;2023-02-23T08:11:43;12.55;;;5.82;;
49942;SDS011;36011;53.362;58.948;2023-02-23T08:14:50;12.88;;;5.85;;
49942;SDS011;36011;53.362;58.948;2023-02-23T08:17:53;9.95;;;4.63;;
49942;SDS011;36011;53.362;58.948;2023-02-23T08:21:00;10.57;;;6.45;;
49942;SDS011;36011;53.362;58.948;2023-02-23T08:24:05;10.18;;;6.07;;
49942;SDS011;36011;53.362;58.948;2023-02-23T08:27:06;7.07;;;5.07;;
49942;SDS011;36011;53.362;58.948;2023-02-23T08:30:08;12.50;;;5.55;;
49942;SDS011;36011;53.362;58.948;2023-02-23T08:33:13;13.63;;;7.88;;
49942;SDS011;36011;53.362;58.948;2023-02-23T08:36:14;8.02;;;5.97;;
49942;SDS011;36011;53.362;58.948;2023-02-23T08:39:15;8.80;;;5.25;;
49942;SDS011;36011;53.362;58.948;2023-02-23T08:42:19;17.17;;;8.13;;
49942;SDS011;36011;53.362;58.948;2023-02-23T08:45:23;13.55;;;5.35;;
49942;SDS011;36011;53.362;58.948;2023-02-23T08:48:29;12.07;;;6.53;;
49942;SDS011;36011;53.362;58.948;2023-02-23T08:51:31;12.07;;;7.90;;
49942;SDS011;36011;53.362;58.948;2023-02-23T08:54:35;16.50;;;8.88;;
49942;SDS011;36011;53.362;58.948;2023-02-23T08:57:36;16.90;;;8.43;;
49942;SDS011;36011;53.362;58.948;2023-02-23T09:00:44;17.55;;;9.70;;
49942;SDS011;36011;53.362;58.948;2023-02-23T09:03:50;15.05;;;9.13;;
49942;SDS011;36011;53.362;58.948;2023-02-23T09:06:54;16.30;;;8.80;;
49942;SDS011;36011;53.362;58.948;2023-02-23T09:09:56;15.18;;;8.55;;
49942;SDS011;36011;53.362;58.948;2023-02-23T09:13:00;15.25;;;7.85;;
49942;SDS011;36011;53.362;58.948;2023-02-23T09:19:06;16.20;;;7.47;;
49942;SDS011;36011;53.362;58.948;2023-02-23T09:22:08;17.70;;;8.98;;
49942;SDS011;36011;53.362;58.948;2023-02-23T09:25:09;15.45;;;8.63;;
49942;SDS011;36011;53.362;58.948;2023-02-23T09:28:17;15.93;;;9.20;;
49942;SDS011;36011;53.362;58.948;2023-02-23T09:31:22;18.52;;;9.25;;
49942;SDS011;36011;53.362;58.948;2023-02-23T09:34:26;15.15;;;9.10;;
49942;SDS011;36011;53.362;58.948;2023-02-23T09:37:30;23.58;;;11.18;;
49942;SDS011;36011;53.362;58.948;2023-02-23T09:40:50;22.02;;;10.60;;
49942;SDS011;36011;53.362;58.948;2023-02-23T09:47:10;14.90;;;8.27;;
49942;SDS011;36011;53.362;58.948;2023-02-23T09:50:20;22.70;;;10.95;;
49942;SDS011;36011;53.362;58.948;2023-02-23T09:56:38;19.38;;;10.77;;
49942;SDS011;36011;53.362;58.948;2023-02-23T09:59:45;15.20;;;7.88;;
49942;SDS011;36011;53.362;58.948;2023-02-23T10:06:06;19.90;;;10.90;;
49942;SDS011;36011;53.362;58.948;2023-02-23T10:16:02;17.67;;;9.55;;
49942;SDS011;36011;53.362;58.948;2023-02-23T10:19:16;19.17;;;10.30;;
49942;SDS011;36011;53.362;58.948;2023-02-23T10:22:22;20.00;;;10.93;;
49942;SDS011;36011;53.362;58.948;2023-02-23T10:25:29;24.20;;;12.23;;
49942;SDS011;36011;53.362;58.948;2023-02-23T10:28:35;20.20;;;10.73;;
49942;SDS011;36011;53.362;58.948;2023-02-23T10:31:40;15.40;;;10.00;;
49942;SDS011;36011;53.362;58.948;2023-02-23T10:34:48;20.00;;;10.27;;
49942;SDS011;36011;53.362;58.948;2023-02-23T10:37:54;17.45;;;8.52;;
49942;SDS011;36011;53.362;58.948;2023-02-23T10:40:56;17.33;;;9.87;;
49942;SDS011;36011;53.362;58.948;2023-02-23T10:47:08;14.73;;;8.60;;
49942;SDS011;36011;53.362;58.948;2023-02-23T10:50:16;25.25;;;13.27;;
49942;SDS011;36011;53.362;58.948;2023-02-23T10:53:23;18.67;;;9.02;;
49942;SDS011;36011;53.362;58.948;2023-02-23T10:56:26;24.17;;;11.80;;
49942;SDS011;36011;53.362;58.948;2023-02-23T10:59:33;28.42;;;12.65;;
49942;SDS011;36011;53.362;58.948;2023-02-23T11:02:35;14.13;;;7.68;;
49942;SDS011;36011;53.362;58.948;2023-02-23T11:05:44;16.73;;;8.50;;
49942;SDS011;36011;53.362;58.948;2023-02-23T11:08:52;20.27;;;11.15;;
49942;SDS011;36011;53.362;58.948;2023-02-23T11:12:03;22.70;;;8.88;;
49942;SDS011;36011;53.362;58.948;2023-02-23T11:15:26;19.55;;;9.63;;
49942;SDS011;36011;53.362;58.948;2023-02-23T11:18:32;13.18;;;7.55;;
49942;SDS011;36011;53.362;58.948;2023-02-23T11:21:38;18.98;;;10.27;;
49942;SDS011;36011;53.362;58.948;2023-02-23T11:24:40;13.23;;;7.78;;
49942;SDS011;36011;53.362;58.948;2023-02-23T11:27:46;15.93;;;9.77;;
49942;SDS011;36011;53.362;58.948;2023-02-23T11:30:54;15.63;;;8.75;;
49942;SDS011;36011;53.362;58.948;2023-02-23T11:33:59;23.95;;;8.95;;
49942;SDS011;36011;53.362;58.948;2023-02-23T11:37:07;28.02;;;12.05;;
49942;SDS011;36011;53.362;58.948;2023-02-23T11:40:28;20.95;;;11.82;;
49942;SDS011;36011;53.362;58.948;2023-02-23T11:43:33;21.83;;;11.75;;
49942;SDS011;36011;53.362;58.948;2023-02-23T11:46:39;12.68;;;7.45;;
49942;SDS011;36011;53.362;58.948;2023-02-23T11:49:45;19.83;;;8.35;;
49942;SDS011;36011;53.362;58.948;2023-02-23T11:52:55;20.63;;;10.38;;
49942;SDS011;36011;53.362;58.948;2023-02-23T11:56:13;19.65;;;8.52;;
49942;SDS011;36011;53.362;58.948;2023-02-23T11:59:25;17.98;;;8.95;;
49942;SDS011;36011;53.362;58.948;2023-02-23T12:02:51;25.77;;;11.63;;
49942;SDS011;36011;53.362;58.948;2023-02-23T12:05:55;18.88;;;9.80;;
49942;SDS011;36011;53.362;58.948;2023-02-23T12:09:04;22.03;;;12.13;;
49942;SDS011;36011;53.362;58.948;2023-02-23T12:12:19;12.63;;;8.25;;
49942;SDS011;36011;53.362;58.948;2023-02-23T12:15:27;25.10;;;12.43;;
49942;SDS011;36011;53.362;58.948;2023-02-23T12:21:40;18.50;;;9.18;;
49942;SDS011;36011;53.362;58.948;2023-02-23T12:24:55;18.85;;;9.85;;
49942;SDS011;36011;53.362;58.948;2023-02-23T12:28:11;18.15;;;9.52;;
49942;SDS011;36011;53.362;58.948;2023-02-23T12:34:57;25.05;;;10.73;;
49942;SDS011;36011;53.362;58.948;2023-02-23T12:45:02;19.65;;;10.20;;
49942;SDS011;36011;53.362;58.948;2023-02-23T12:51:54;13.15;;;7.75;;
49942;SDS011;36011;53.362;58.948;2023-02-23T12:55:10;20.13;;;8.98;;
49942;SDS011;36011;53.362;58.948;2023-02-23T13:01:28;19.92;;;9.23;;
49942;SDS011;36011;53.362;58.948;2023-02-23T13:10:54;16.95;;;9.63;;
49942;SDS011;36011;53.362;58.948;2023-02-23T13:24:40;22.27;;;11.15;;
49942;SDS011;36011;53.362;58.948;2023-02-23T13:27:51;21.52;;;11.40;;
49942;SDS011;36011;53.362;58.948;2023-02-23T13:31:00;21.98;;;9.73;;
49942;SDS011;36011;53.362;58.948;2023-02-23T13:34:02;16.30;;;7.82;;
49942;SDS011;36011;53.362;58.948;2023-02-23T13:37:11;9.63;;;7.28;;
49942;SDS011;36011;53.362;58.948;2023-02-23T13:43:48;17.25;;;9.57;;
49942;SDS011;36011;53.362;58.948;2023-02-23T13:46:59;22.70;;;10.10;;
49942;SDS011;36011;53.362;58.948;2023-02-23T13:56:42;20.90;;;10.48;;
49942;SDS011;36011;53.362;58.948;2023-02-23T13:59:47;18.38;;;8.98;;
49942;SDS011;36011;53.362;58.948;2023-02-23T14:02:50;19.33;;;9.30;;
49942;SDS011;36011;53.362;58.948;2023-02-23T14:05:54;19.63;;;9.40;;
49942;SDS011;36011;53.362;58.948;2023-02-23T14:09:05;14.35;;;7.45;;
49942;SDS011;36011;53.362;58.948;2023-02-23T14:22:12;16.05;;;8.20;;
49942;SDS011;36011;53.362;58.948;2023-02-23T14:29:21;14.83;;;6.77;;
49942;SDS011;36011;53.362;58.948;2023-02-23T14:38:34;13.93;;;7.15;;
49942;SDS011;36011;53.362;58.948;2023-02-23T14:41:40;14.55;;;7.47;;
49942;SDS011;36011;53.362;58.948;2023-02-23T14:47:55;19.05;;;9.55;;
49942;SDS011;36011;53.362;58.948;2023-02-23T14:51:12;11.57;;;7.32;;
49942;SDS011;36011;53.362;58.948;2023-02-23T14:57:40;18.45;;;8.20;;
49942;SDS011;36011;53.362;58.948;2023-02-23T15:00:42;13.20;;;6.43;;
49942;SDS011;36011;53.362;58.948;2023-02-23T15:04:03;16.15;;;8.18;;
49942;SDS011;36011;53.362;58.948;2023-02-23T15:07:11;16.98;;;8.45;;
49942;SDS011;36011;53.362;58.948;2023-02-23T15:10:39;12.52;;;7.90;;
49942;SDS011;36011;53.362;58.948;2023-02-23T15:13:46;16.08;;;8.90;;
49942;SDS011;36011;53.362;58.948;2023-02-23T15:16:51;19.08;;;8.73;;
49942;SDS011;36011;53.362;58.948;2023-02-23T15:19:57;17.77;;;8.55;;
49942;SDS011;36011;53.362;58.948;2023-02-23T15:23:02;13.38;;;7.93;;
49942;SDS011;36011;53.362;58.948;2023-02-23T15:26:14;16.65;;;9.07;;
49942;SDS011;36011;53.362;58.948;2023-02-23T15:29:31;14.20;;;6.22;;
49942;SDS011;36011;53.362;58.948;2023-02-23T15:32:36;22.88;;;10.15;;
49942;SDS011;36011;53.362;58.948;2023-02-23T15:35:47;12.50;;;7.68;;
49942;SDS011;36011;53.362;58.948;2023-02-23T15:38:54;15.50;;;7.85;;
49942;SDS011;36011;53.362;58.948;2023-02-23T15:42:02;16.08;;;6.80;;
49942;SDS011;36011;53.362;58.948;2023-02-23T15:48:45;16.77;;;7.38;;
49942;SDS011;36011;53.362;58.948;2023-02-23T15:51:55;14.02;;;7.28;;
49942;SDS011;36011;53.362;58.948;2023-02-23T15:55:02;12.63;;;6.80;;
49942;SDS011;36011;53.362;58.948;2023-02-23T15:58:26;11.88;;;6.22;;
49942;SDS011;36011;53.362;58.948;2023-02-23T16:01:31;12.10;;;6.10;;
49942;SDS011;36011;53.362;58.948;2023-02-23T16:04:45;10.63;;;7.38;;
49942;SDS011;36011;53.362;58.948;2023-02-23T16:08:01;11.30;;;6.03;;
49942;SDS011;36011;53.362;58.948;2023-02-23T16:11:12;13.32;;;6.20;;
49942;SDS011;36011;53.362;58.948;2023-02-23T16:14:16;15.75;;;8.50;;
49942;SDS011;36011;53.362;58.948;2023-02-23T16:17:39;23.77;;;10.98;;
49942;SDS011;36011;53.362;58.948;2023-02-23T16:20:48;22.98;;;10.45;;
49942;SDS011;36011;53.362;58.948;2023-02-23T16:24:04;13.68;;;5.82;;
49942;SDS011;36011;53.362;58.948;2023-02-23T16:27:09;19.55;;;8.95;;
49942;SDS011;36011;53.362;58.948;2023-02-23T16:33:27;13.35;;;8.15;;
49942;SDS011;36011;53.362;58.948;2023-02-23T16:36:34;16.67;;;8.18;;
49942;SDS011;36011;53.362;58.948;2023-02-23T16:39:38;15.35;;;8.57;;
49942;SDS011;36011;53.362;58.948;2023-02-23T16:42:39;12.75;;;6.35;;
49942;SDS011;36011;53.362;58.948;2023-02-23T16:45:41;15.77;;;7.68;;
49942;SDS011;36011;53.362;58.948;2023-02-23T16:48:43;11.07;;;6.55;;
49942;SDS011;36011;53.362;58.948;2023-02-23T16:51:48;13.00;;;6.80;;
49942;SDS011;36011;53.362;58.948;2023-02-23T16:54:52;9.32;;;6.43;;
49942;SDS011;36011;53.362;58.948;2023-02-23T16:57:57;12.45;;;6.95;;
49942;SDS011;36011;53.362;58.948;2023-02-23T17:01:04;8.10;;;5.65;;
49942;SDS011;36011;53.362;58.948;2023-02-23T17:04:17;12.63;;;7.63;;
49942;SDS011;36011;53.362;58.948;2023-02-23T17:07:27;10.65;;;6.95;;
49942;SDS011;36011;53.362;58.948;2023-02-23T17:10:31;7.30;;;5.28;;
49942;SDS011;36011;53.362;58.948;2023-02-23T17:13:36;11.20;;;6.32;;
49942;SDS011;36011;53.362;58.948;2023-02-23T17:16:38;17.08;;;9.07;;
49942;SDS011;36011;53.362;58.948;2023-02-23T17:19:39;12.18;;;6.72;;
49942;SDS011;36011;53.362;58.948;2023-02-23T17:22:40;11.40;;;6.05;;
49942;SDS011;36011;53.362;58.948;2023-02-23T17:28:50;11.82;;;6.78;;
49942;SDS011;36011;53.362;58.948;2023-02-23T17:31:55;7.95;;;4.30;;
49942;SDS011;36011;53.362;58.948;2023-02-23T17:38:02;13.57;;;7.45;;
49942;SDS011;36011;53.362;58.948;2023-02-23T17:41:07;17.73;;;6.60;;
49942;SDS011;36011;53.362;58.948;2023-02-23T17:44:12;18.42;;;8.48;;
49942;SDS011;36011;53.362;58.948;2023-02-23T17:47:33;18.55;;;7.18;;
49942;SDS011;36011;53.362;58.948;2023-02-23T17:50:38;19.83;;;7.78;;
49942;SDS011;36011;53.362;58.948;2023-02-23T17:53:43;12.63;;;7.13;;
49942;SDS011;36011;53.362;58.948;2023-02-23T17:56:44;21.20;;;9.70;;
49942;SDS011;36011;53.362;58.948;2023-02-23T17:59:46;20.05;;;10.20;;
49942;SDS011;36011;53.362;58.948;2023-02-23T18:05:50;23.65;;;11.43;;
49942;SDS011;36011;53.362;58.948;2023-02-23T18:08:52;17.58;;;8.18;;
49942;SDS011;36011;53.362;58.948;2023-02-23T18:11:56;23.33;;;11.25;;
49942;SDS011;36011;53.362;58.948;2023-02-23T18:18:00;11.30;;;5.95;;
49942;SDS011;36011;53.362;58.948;2023-02-23T18:21:08;14.43;;;7.43;;
49942;SDS011;36011;53.362;58.948;2023-02-23T18:24:14;9.60;;;6.05;;
49942;SDS011;36011;53.362;58.948;2023-02-23T18:27:18;17.13;;;9.07;;
49942;SDS011;36011;53.362;58.948;2023-02-23T18:30:23;7.93;;;5.15;;
49942;SDS011;36011;53.362;58.948;2023-02-23T18:33:31;15.45;;;7.78;;
49942;SDS011;36011;53.362;58.948;2023-02-23T18:36:45;11.80;;;5.10;;
49942;SDS011;36011;53.362;58.948;2023-02-23T18:39:50;7.80;;;5.78;;
49942;SDS011;36011;53.362;58.948;2023-02-23T18:42:54;11.38;;;5.45;;
49942;SDS011;36011;53.362;58.948;2023-02-23T18:46:03;15.80;;;8.27;;
49942;SDS011;36011;53.362;58.948;2023-02-23T18:49:10;3.88;;;3.55;;
49942;SDS011;36011;53.362;58.948;2023-02-23T18:52:16;10.27;;;5.60;;
49942;SDS011;36011;53.362;58.948;2023-02-23T18:55:23;12.25;;;6.28;;
49942;SDS011;36011;53.362;58.948;2023-02-23T18:58:24;15.18;;;7.70;;
49942;SDS011;36011;53.362;58.948;2023-02-23T19:01:27;10.45;;;6.60;;
49942;SDS011;36011;53.362;58.948;2023-02-23T19:04:29;9.85;;;7.15;;
49942;SDS011;36011;53.362;58.948;2023-02-23T19:07:33;12.02;;;6.75;;
49942;SDS011;36011;53.362;58.948;2023-02-23T19:10:37;18.40;;;9.02;;
49942;SDS011;36011;53.362;58.948;2023-02-23T19:13:42;7.63;;;4.63;;
49942;SDS011;36011;53.362;58.948;2023-02-23T19:19:47;20.20;;;9.60;;
49942;SDS011;36011;53.362;58.948;2023-02-23T19:22:48;24.95;;;11.52;;
49942;SDS011;36011;53.362;58.948;2023-02-23T19:25:50;22.27;;;11.02;;
49942;SDS011;36011;53.362;58.948;2023-02-23T19:28:51;11.90;;;6.00;;
49942;SDS011;36011;53.362;58.948;2023-02-23T19:31:53;16.77;;;9.30;;
49942;SDS011;36011;53.362;58.948;2023-02-23T19:34:57;14.60;;;7.25;;
49942;SDS011;36011;53.362;58.948;2023-02-23T19:37:58;16.40;;;10.30;;
49942;SDS011;36011;53.362;58.948;2023-02-23T19:41:05;17.65;;;8.77;;
49942;SDS011;36011;53.362;58.948;2023-02-23T19:44:07;15.73;;;8.45;;
49942;SDS011;36011;53.362;58.948;2023-02-23T19:47:09;16.63;;;7.97;;
49942;SDS011;36011;53.362;58.948;2023-02-23T19:50:13;15.07;;;8.05;;
49942;SDS011;36011;53.362;58.948;2023-02-23T19:53:21;15.27;;;8.82;;
49942;SDS011;36011;53.362;58.948;2023-02-23T19:56:25;11.10;;;6.65;;
49942;SDS011;36011;53.362;58.948;2023-02-23T19:59:30;13.93;;;6.72;;
49942;SDS011;36011;53.362;58.948;2023-02-23T20:02:31;15.40;;;8.10;;
49942;SDS011;36011;53.362;58.948;2023-02-23T20:05:44;14.13;;;5.40;;
49942;SDS011;36011;53.362;58.948;2023-02-23T20:08:46;16.48;;;8.52;;
49942;SDS011;36011;53.362;58.948;2023-02-23T20:11:54;16.02;;;8.98;;
49942;SDS011;36011;53.362;58.948;2023-02-23T20:15:00;14.77;;;7.13;;
49942;SDS011;36011;53.362;58.948;2023-02-23T20:18:02;10.60;;;5.63;;
49942;SDS011;36011;53.362;58.948;2023-02-23T20:21:14;11.88;;;7.32;;
49942;SDS011;36011;53.362;58.948;2023-02-23T20:24:17;12.93;;;8.07;;
49942;SDS011;36011;53.362;58.948;2023-02-23T20:27:19;18.17;;;8.15;;
49942;SDS011;36011;53.362;58.948;2023-02-23T20:30:22;16.67;;;7.30;;
49942;SDS011;36011;53.362;58.948;2023-02-23T20:33:23;25.08;;;10.32;;
49942;SDS011;36011;53.362;58.948;2023-02-23T20:36:28;14.90;;;8.43;;
49942;SDS011;36011;53.362;58.948;2023-02-23T20:39:29;16.65;;;8.73;;
49942;SDS011;36011;53.362;58.948;2023-02-23T20:42:31;19.58;;;10.00;;
49942;SDS011;36011;53.362;58.948;2023-02-23T20:45:32;19.35;;;10.23;;
49942;SDS011;36011;53.362;58.948;2023-02-23T20:48:33;15.57;;;6.53;;
49942;SDS011;36011;53.362;58.948;2023-02-23T20:51:36;19.15;;;9.45;;
49942;SDS011;36011;53.362;58.948;2023-02-23T20:54:38;17.63;;;9.05;;
49942;SDS011;36011;53.362;58.948;2023-02-23T20:57:42;17.73;;;10.00;;
49942;SDS011;36011;53.362;58.948;2023-02-23T21:00:44;14.63;;;8.05;;
49942;SDS011;36011;53.362;58.948;2023-02-23T21:03:50;12.17;;;7.03;;
49942;SDS011;36011;53.362;58.948;2023-02-23T21:06:54;21.50;;;10.40;;
49942;SDS011;36011;53.362;58.948;2023-02-23T21:09:56;15.45;;;8.07;;
49942;SDS011;36011;53.362;58.948;2023-02-23T21:13:01;22.55;;;9.15;;
49942;SDS011;36011;53.362;58.948;2023-02-23T21:16:05;19.17;;;8.60;;